createdAt,value
2018-09-02T00:01:46.471Z,102207.91
2018-09-02T00:04:16.486Z,102210.48
2018-09-02T00:06:46.516Z,102211.64
2018-09-02T00:09:18.222Z,102205.26
2018-09-02T00:11:48.745Z,102206.50
2018-09-02T00:14:19.250Z,102197.61
2018-09-02T00:16:48.654Z,102207.98
2018-09-02T00:19:17.550Z,102206.31
2018-09-02T00:21:47.108Z,102207.80
2018-09-02T00:24:16.467Z,102217.63
2018-09-02T00:26:46.046Z,102209.61
2018-09-02T00:29:15.435Z,102208.36
2018-09-02T00:31:45.089Z,102209.28
2018-09-02T00:34:14.236Z,102206.25
2018-09-02T00:36:44.405Z,102211.19
2018-09-02T00:39:14.548Z,102214.03
2018-09-02T00:41:43.644Z,102206.58
2018-09-02T00:44:13.078Z,102215.38
2018-09-02T00:46:43.381Z,102214.08
2018-09-02T00:49:12.407Z,102222.19
2018-09-02T00:51:43.997Z,102217.19
2018-09-02T00:54:13.251Z,102213.83
2018-09-02T00:56:43.486Z,102211.12
2018-09-02T00:59:12.824Z,102204.05
2018-09-02T01:01:42.304Z,102199.44
2018-09-02T01:04:11.294Z,102200.32
2018-09-02T01:06:40.925Z,102197.36
2018-09-02T01:09:10.411Z,102204.00
2018-09-02T01:11:40.739Z,102203.94
2018-09-02T01:14:10.125Z,102201.98
2018-09-02T01:16:39.190Z,102196.98
2018-09-02T01:19:09.312Z,102197.35
2018-09-02T01:21:39.000Z,102194.54
2018-09-02T01:24:08.123Z,102188.67
2018-09-02T01:26:37.478Z,102183.92
2018-09-02T01:29:06.954Z,102189.25
2018-09-02T01:31:36.813Z,102192.00
2018-09-02T01:34:06.805Z,102189.30
2018-09-02T01:36:36.693Z,102178.75
2018-09-02T01:39:06.637Z,102175.40
2018-09-02T01:41:35.662Z,102179.97
2018-09-02T01:44:06.386Z,102179.34
2018-09-02T01:46:35.840Z,102184.27
2018-09-02T01:49:05.501Z,102180.22
2018-09-02T01:51:34.921Z,102189.92
2018-09-02T01:54:04.162Z,102198.35
2018-09-02T01:56:34.329Z,102190.29
2018-09-02T01:59:03.104Z,102196.41
2018-09-02T02:01:32.243Z,102194.73
2018-09-02T02:04:02.360Z,102197.95
2018-09-02T02:06:31.450Z,102194.73
2018-09-02T02:09:00.545Z,102194.41
2018-09-02T02:11:29.903Z,102192.73
2018-09-02T02:13:59.916Z,102198.02
2018-09-02T02:16:30.444Z,102192.80
2018-09-02T02:18:59.717Z,102196.67
2018-09-02T02:21:29.001Z,102192.47
2018-09-02T02:23:58.005Z,102191.63
2018-09-02T02:26:26.970Z,102187.47
2018-09-02T02:28:56.452Z,102186.42
2018-09-02T02:31:26.410Z,102183.72
2018-09-02T02:33:56.541Z,102180.73
2018-09-02T02:36:26.048Z,102184.12
2018-09-02T02:38:55.140Z,102185.14
2018-09-02T02:41:24.933Z,102188.34
2018-09-02T02:43:54.590Z,102183.03
2018-09-02T02:46:24.032Z,102178.02
2018-09-02T02:48:53.070Z,102183.42
2018-09-02T02:51:22.843Z,102179.37
2018-09-02T02:53:51.753Z,102179.37
2018-09-02T02:56:21.967Z,102176.67
2018-09-02T02:58:51.042Z,102182.73
2018-09-02T03:01:20.917Z,102180.91
2018-09-02T03:03:50.619Z,102176.09
2018-09-02T03:06:21.506Z,102176.28
2018-09-02T03:08:50.803Z,102171.58
2018-09-02T03:11:20.655Z,102176.46
2018-09-02T03:13:50.338Z,102173.14
2018-09-02T03:16:19.755Z,102180.06
2018-09-02T03:18:50.226Z,102177.37
2018-09-02T03:21:20.196Z,102177.73
2018-09-02T03:23:49.425Z,102174.20
2018-09-02T03:26:18.724Z,102170.55
2018-09-02T03:28:47.737Z,102170.06
2018-09-02T03:31:18.691Z,102165.39
2018-09-02T03:33:48.275Z,102167.95
2018-09-02T03:36:18.555Z,102162.07
2018-09-02T03:38:47.985Z,102164.98
2018-09-02T03:41:17.388Z,102170.89
2018-09-02T03:43:46.719Z,102174.27
2018-09-02T03:46:16.736Z,102176.91
2018-09-02T03:48:47.318Z,102174.94
2018-09-02T03:51:16.812Z,102179.67
2018-09-02T03:53:47.562Z,102176.83
2018-09-02T03:56:17.027Z,102175.36
2018-09-02T03:58:47.097Z,102168.61
2018-09-02T04:01:16.666Z,102169.24
2018-09-02T04:03:48.113Z,102162.17
2018-09-02T04:06:17.731Z,102158.84
2018-09-02T04:08:49.198Z,102162.17
2018-09-02T04:11:20.489Z,102158.13
2018-09-02T04:13:49.610Z,102166.94
2018-09-02T04:16:19.018Z,102161.57
2018-09-02T04:18:49.229Z,102158.52
2018-09-02T04:21:18.894Z,102163.11
2018-09-02T04:23:48.426Z,102165.00
2018-09-02T04:26:17.869Z,102166.64
2018-09-02T04:28:46.814Z,102165.29
2018-09-02T04:31:16.363Z,102166.52
2018-09-02T04:33:45.548Z,102169.06
2018-09-02T04:36:14.836Z,102172.70
2018-09-02T04:38:43.814Z,102174.97
2018-09-02T04:41:13.440Z,102171.50
2018-09-02T04:43:42.421Z,102171.83
2018-09-02T04:46:12.150Z,102167.81
2018-09-02T04:48:41.812Z,102169.81
2018-09-02T04:51:11.736Z,102169.81
2018-09-02T04:53:40.970Z,102170.66
2018-09-02T04:56:10.782Z,102173.95
2018-09-02T04:58:39.814Z,102171.11
2018-09-02T05:01:10.302Z,102171.86
2018-09-02T05:03:40.317Z,102166.85
2018-09-02T05:06:09.559Z,102178.42
2018-09-02T05:08:39.166Z,102174.55
2018-09-02T05:11:08.861Z,102176.23
2018-09-02T05:13:38.572Z,102168.14
2018-09-02T05:16:07.567Z,102168.14
2018-09-02T05:18:36.938Z,102167.72
2018-09-02T05:21:05.903Z,102171.53
2018-09-02T05:23:35.274Z,102171.77
2018-09-02T05:26:04.775Z,102174.13
2018-09-02T05:28:33.694Z,102174.46
2018-09-02T05:31:04.314Z,102175.72
2018-09-02T05:33:33.338Z,102174.70
2018-09-02T05:36:03.041Z,102173.35
2018-09-02T05:38:32.436Z,102172.70
2018-09-02T05:41:01.443Z,102170.98
2018-09-02T05:43:30.744Z,102171.34
2018-09-02T05:46:00.494Z,102170.33
2018-09-02T05:48:29.997Z,102172.42
2018-09-02T05:51:00.315Z,102175.98
2018-09-02T05:53:29.984Z,102174.97
2018-09-02T05:56:00.102Z,102177.66
2018-09-02T05:58:29.794Z,102171.91
2018-09-02T06:00:58.645Z,102171.84
2018-09-02T06:03:27.823Z,102169.54
2018-09-02T06:05:58.595Z,102162.47
2018-09-02T06:08:28.198Z,102165.53
2018-09-02T06:10:58.949Z,102165.02
2018-09-02T06:13:28.021Z,102161.63
2018-09-02T06:15:58.148Z,102160.39
2018-09-02T06:18:28.203Z,102160.39
2018-09-02T06:20:58.863Z,102157.74
2018-09-02T06:23:28.229Z,102157.81
2018-09-02T06:26:04.731Z,102160.44
2018-09-02T06:28:34.033Z,102164.41
2018-09-02T06:31:04.278Z,102161.71
2018-09-02T06:33:35.172Z,102165.16
2018-09-02T06:36:04.522Z,102163.06
2018-09-02T06:38:34.505Z,102155.95
2018-09-02T06:41:03.467Z,102162.27
2018-09-02T06:43:32.585Z,102150.75
2018-09-02T06:46:03.154Z,102153.95
2018-09-02T06:48:32.651Z,102154.98
2018-09-02T06:51:02.602Z,102144.19
2018-09-02T06:53:31.910Z,102143.53
2018-09-02T06:56:02.449Z,102146.66
2018-09-02T06:58:31.782Z,102141.59
2018-09-02T07:01:00.987Z,102144.36
2018-09-02T07:03:31.488Z,102142.55
2018-09-02T07:06:01.322Z,102145.84
2018-09-02T07:08:31.468Z,102141.59
2018-09-02T07:11:01.313Z,102146.87
2018-09-02T07:13:31.126Z,102144.67
2018-09-02T07:16:01.135Z,102143.34
2018-09-02T07:18:32.110Z,102145.19
2018-09-02T07:21:03.382Z,102148.22
2018-09-02T07:23:33.475Z,102147.72
2018-09-02T07:26:02.596Z,102155.55
2018-09-02T07:28:34.940Z,102152.22
2018-09-02T07:31:06.849Z,102152.27
2018-09-02T07:33:36.399Z,102157.16
2018-09-02T07:36:05.799Z,102161.48
2018-09-02T07:38:35.157Z,102161.87
2018-09-02T07:41:04.334Z,102155.95
2018-09-02T07:43:35.351Z,102161.35
2018-09-02T07:46:05.673Z,102151.45
2018-09-02T07:48:35.324Z,102155.17
2018-09-02T07:51:04.538Z,102152.85
2018-09-02T07:53:34.729Z,102142.94
2018-09-02T07:56:04.511Z,102145.05
2018-09-02T07:58:33.598Z,102144.39
2018-09-02T08:01:03.646Z,102148.24
2018-09-02T08:03:32.692Z,102148.35
2018-09-02T08:06:02.487Z,102143.27
2018-09-02T08:08:32.558Z,102145.91
2018-09-02T08:11:02.497Z,102151.83
2018-09-02T08:13:34.395Z,102154.94
2018-09-02T08:16:04.469Z,102152.65
2018-09-02T08:18:33.642Z,102146.36
2018-09-02T08:21:03.644Z,102143.69
2018-09-02T08:23:33.483Z,102144.55
2018-09-02T08:26:04.520Z,102144.98
2018-09-02T08:28:33.831Z,102146.33
2018-09-02T08:31:03.246Z,102151.36
2018-09-02T08:33:32.822Z,102151.14
2018-09-02T08:36:02.669Z,102150.73
2018-09-02T08:38:33.196Z,102146.90
2018-09-02T08:41:02.904Z,102153.20
2018-09-02T08:43:31.943Z,102153.09
2018-09-02T08:46:01.008Z,102148.03
2018-09-02T08:48:29.989Z,102148.95
2018-09-02T08:51:00.181Z,102147.23
2018-09-02T08:53:29.591Z,102152.13
2018-09-02T08:55:58.945Z,102149.88
2018-09-02T08:58:28.523Z,102150.07
2018-09-02T09:00:59.034Z,102148.39
2018-09-02T09:03:28.742Z,102153.56
2018-09-02T09:05:57.871Z,102150.16
2018-09-02T09:08:28.588Z,102147.64
2018-09-02T09:11:00.019Z,102144.16
2018-09-02T09:13:30.222Z,102150.77
2018-09-02T09:16:00.119Z,102144.02
2018-09-02T09:18:29.699Z,102143.17
2018-09-02T09:20:59.701Z,102144.53
2018-09-02T09:23:29.327Z,102148.55
2018-09-02T09:25:58.796Z,102145.49
2018-09-02T09:28:29.126Z,102141.08
2018-09-02T09:30:59.398Z,102140.76
2018-09-02T09:33:29.135Z,102140.01
2018-09-02T09:35:58.749Z,102145.33
2018-09-02T09:38:29.961Z,102139.62
2018-09-02T09:41:00.022Z,102144.42
2018-09-02T09:43:29.790Z,102148.66
2018-09-02T09:45:59.393Z,102148.03
2018-09-02T09:48:28.624Z,102145.73
2018-09-02T09:50:58.404Z,102138.98
2018-09-02T09:53:27.944Z,102137.10
2018-09-02T09:55:57.303Z,102128.41
2018-09-02T09:58:27.098Z,102130.76
2018-09-02T10:00:56.347Z,102123.91
2018-09-02T10:03:27.183Z,102121.85
2018-09-02T10:05:56.946Z,102127.11
2018-09-02T10:08:26.905Z,102120.27
2018-09-02T10:10:57.273Z,102112.01
2018-09-02T10:13:26.850Z,102118.77
2018-09-02T10:15:56.333Z,102119.42
2018-09-02T10:18:25.758Z,102112.38
2018-09-02T10:20:55.884Z,102112.38
2018-09-02T10:23:25.531Z,102110.52
2018-09-02T10:25:55.182Z,102114.52
2018-09-02T10:28:24.454Z,102101.14
2018-09-02T10:30:54.123Z,102097.60
2018-09-02T10:33:24.544Z,102092.84
2018-09-02T10:35:54.971Z,102086.20
2018-09-02T10:38:24.207Z,102086.00
2018-09-02T10:40:54.403Z,102083.69
2018-09-02T10:43:24.751Z,102078.13
2018-09-02T10:45:54.213Z,102077.11
2018-09-02T10:48:23.534Z,102061.13
2018-09-02T10:50:53.169Z,102057.95
2018-09-02T10:53:22.280Z,102050.48
2018-09-02T10:55:52.433Z,102045.08
2018-09-02T10:58:22.096Z,102045.53
2018-09-02T11:00:51.490Z,102039.06
2018-09-02T11:03:21.304Z,102031.28
2018-09-02T11:05:51.046Z,102029.57
2018-09-02T11:08:20.544Z,102024.90
2018-09-02T11:10:49.793Z,102024.28
2018-09-02T11:13:19.516Z,102011.92
2018-09-02T11:15:48.763Z,102009.75
2018-09-02T11:18:18.692Z,102007.07
2018-09-02T11:20:48.498Z,102009.83
2018-09-02T11:23:17.544Z,102002.52
2018-09-02T11:25:47.901Z,101990.93
2018-09-02T11:28:17.697Z,101993.75
2018-09-02T11:30:47.183Z,101988.12
2018-09-02T11:33:16.837Z,101979.08
2018-09-02T11:35:45.878Z,101980.31
2018-09-02T11:38:14.907Z,101969.49
2018-09-02T11:40:44.268Z,101972.44
2018-09-02T11:43:14.633Z,101962.80
2018-09-02T11:45:45.231Z,101961.53
2018-09-02T11:48:14.934Z,101955.91
2018-09-02T11:50:44.514Z,101955.59
2018-09-02T11:53:13.467Z,101953.91
2018-09-02T11:55:42.687Z,101950.33
2018-09-02T11:58:12.573Z,101946.43
2018-09-02T12:00:42.638Z,101940.14
2018-09-02T12:03:13.401Z,101939.28
2018-09-02T12:05:42.776Z,101932.53
2018-09-02T12:08:11.718Z,101928.88
2018-09-02T12:10:41.428Z,101924.23
2018-09-02T12:13:10.435Z,101930.55
2018-09-02T12:15:39.654Z,101930.89
2018-09-02T12:18:09.597Z,101929.66
2018-09-02T12:20:39.542Z,101932.08
2018-09-02T12:23:09.564Z,101938.97
2018-09-02T12:25:38.989Z,101929.40
2018-09-02T12:28:08.269Z,101931.40
2018-09-02T12:30:37.755Z,101925.88
2018-09-02T12:33:07.127Z,101923.93
2018-09-02T12:35:36.844Z,101921.42
2018-09-02T12:38:06.296Z,101913.39
2018-09-02T12:40:35.394Z,101914.48
2018-09-02T12:43:04.534Z,101911.81
2018-09-02T12:45:35.131Z,101906.91
2018-09-02T12:48:04.555Z,101907.55
2018-09-02T12:50:33.439Z,101902.16
2018-09-02T12:53:02.974Z,101898.44
2018-09-02T12:55:32.918Z,101896.16
2018-09-02T12:58:01.892Z,101902.31
2018-09-02T13:00:34.002Z,101897.77
2018-09-02T13:03:03.555Z,101896.98
2018-09-02T13:05:33.053Z,101898.73
2018-09-02T13:08:02.924Z,101887.59
2018-09-02T13:10:32.916Z,101889.06
2018-09-02T13:13:03.093Z,101890.84
2018-09-02T13:15:32.188Z,101900.63
2018-09-02T13:18:01.511Z,101898.91
2018-09-02T13:20:31.399Z,101899.95
2018-09-02T13:23:01.166Z,101905.14
2018-09-02T13:25:31.470Z,101898.87
2018-09-02T13:28:00.960Z,101901.31
2018-09-02T13:30:30.531Z,101907.12
2018-09-02T13:32:59.687Z,101895.30
2018-09-02T13:35:29.844Z,101897.75
2018-09-02T13:37:59.674Z,101899.84
2018-09-02T13:40:29.705Z,101894.73
2018-09-02T13:42:59.370Z,101901.95
2018-09-02T13:45:29.819Z,101886.55
2018-09-02T13:47:58.960Z,101895.90
2018-09-02T13:50:28.656Z,101887.50
2018-09-02T13:52:57.862Z,101889.31
2018-09-02T13:55:27.576Z,101878.45
2018-09-02T13:57:56.980Z,101888.45
2018-09-02T14:00:26.388Z,101881.67
2018-09-02T14:02:55.301Z,101880.09
2018-09-02T14:05:25.144Z,101878.28
2018-09-02T14:07:55.332Z,101877.83
2018-09-02T14:10:25.208Z,101878.72
2018-09-02T14:12:55.491Z,101874.53
2018-09-02T14:15:25.245Z,101868.27
2018-09-02T14:17:55.288Z,101866.97
2018-09-02T14:20:25.209Z,101862.12
2018-09-02T14:22:55.257Z,101851.42
2018-09-02T14:25:24.851Z,101853.08
2018-09-02T14:27:54.652Z,101850.09
2018-09-02T14:30:23.843Z,101840.40
2018-09-02T14:32:52.957Z,101839.75
2018-09-02T14:35:22.242Z,101832.42
2018-09-02T14:40:29.700Z,101830.05
2018-09-02T14:43:00.263Z,101832.89
2018-09-02T14:45:29.579Z,101832.45
2018-09-02T14:47:59.946Z,101825.28
2018-09-02T14:50:28.992Z,101824.62
2018-09-02T14:52:58.338Z,101821.21
2018-09-02T14:55:28.737Z,101828.70
2018-09-02T14:57:58.652Z,101825.36
2018-09-02T15:00:27.796Z,101820.67
2018-09-02T15:02:56.800Z,101820.53
2018-09-02T15:05:26.123Z,101822.70
2018-09-02T15:07:56.065Z,101813.59
2018-09-02T15:10:25.474Z,101812.23
2018-09-02T15:12:54.438Z,101818.72
2018-09-02T15:15:24.451Z,101814.95
2018-09-02T15:17:54.717Z,101814.78
2018-09-02T15:20:24.335Z,101820.53
2018-09-02T15:22:54.308Z,101806.78
2018-09-02T15:25:23.413Z,101810.49
2018-09-02T15:27:53.652Z,101811.18
2018-09-02T15:30:23.724Z,101805.42
2018-09-02T15:32:53.442Z,101796.00
2018-09-02T15:35:22.784Z,101798.94
2018-09-02T15:37:51.913Z,101790.42
2018-09-02T15:40:22.507Z,101792.39
2018-09-02T15:42:51.710Z,101791.26
2018-09-02T15:45:20.944Z,101788.98
2018-09-02T15:47:57.336Z,101798.12
2018-09-02T15:50:26.577Z,101797.59
2018-09-02T15:52:56.919Z,101793.67
2018-09-02T15:55:26.174Z,101791.03
2018-09-02T15:57:55.598Z,101794.58
2018-09-02T16:00:26.189Z,101790.78
2018-09-02T16:02:56.547Z,101789.07
2018-09-02T16:05:25.696Z,101789.36
2018-09-02T16:07:54.972Z,101796.37
2018-09-02T16:10:26.302Z,101782.66
2018-09-02T16:12:55.655Z,101788.67
2018-09-02T16:15:26.563Z,101789.58
2018-09-02T16:17:56.661Z,101785.95
2018-09-02T16:20:25.723Z,101787.55
2018-09-02T16:22:55.479Z,101779.16
2018-09-02T16:25:24.991Z,101776.83
2018-09-02T16:27:54.733Z,101778.94
2018-09-02T16:30:25.369Z,101782.19
2018-09-02T16:32:54.392Z,101784.83
2018-09-02T16:35:23.886Z,101781.53
2018-09-02T16:37:53.621Z,101778.86
2018-09-02T16:40:23.760Z,101776.00
2018-09-02T16:42:52.810Z,101770.42
2018-09-02T16:45:22.167Z,101778.88
2018-09-02T16:47:52.309Z,101777.81
2018-09-02T16:50:21.496Z,101781.75
2018-09-02T16:52:50.563Z,101786.56
2018-09-02T16:55:20.519Z,101785.06
2018-09-02T16:57:50.426Z,101775.69
2018-09-02T17:00:26.626Z,101776.89
2018-09-02T17:02:56.271Z,101776.22
2018-09-02T17:05:28.152Z,101780.52
2018-09-02T17:07:57.154Z,101774.41
2018-09-02T17:10:27.259Z,101775.06
2018-09-02T17:12:56.643Z,101774.76
2018-09-02T17:15:27.002Z,101768.13
2018-09-02T17:17:59.133Z,101776.18
2018-09-02T17:20:36.585Z,101770.62
2018-09-02T17:23:12.210Z,101768.74
2018-09-02T17:25:42.620Z,101766.85
2018-09-02T17:28:11.544Z,101766.18
2018-09-02T17:30:41.155Z,101768.59
2018-09-02T17:33:11.984Z,101765.56
2018-09-02T17:35:40.980Z,101766.92
2018-09-02T17:38:10.199Z,101759.94
2018-09-02T17:40:39.789Z,101761.52
2018-09-02T17:43:09.369Z,101766.63
2018-09-02T17:45:39.599Z,101764.60
2018-09-02T17:48:09.190Z,101766.92
2018-09-02T17:50:38.626Z,101769.85
2018-09-02T17:53:08.397Z,101759.83
2018-09-02T17:55:37.429Z,101763.94
2018-09-02T17:58:06.221Z,101757.20
2018-09-02T18:00:41.750Z,101760.22
2018-09-02T18:03:11.796Z,101764.23
2018-09-02T18:05:41.891Z,101761.14
2018-09-02T18:08:10.940Z,101758.73
2018-09-02T18:10:40.150Z,101758.13
2018-09-02T18:13:09.112Z,101767.27
2018-09-02T18:15:39.447Z,101768.84
2018-09-02T18:18:10.006Z,101771.34
2018-09-02T18:20:43.005Z,101772.52
2018-09-02T18:23:12.721Z,101783.54
2018-09-02T18:25:42.759Z,101769.34
2018-09-02T18:28:16.003Z,101778.23
2018-09-02T18:30:45.171Z,101780.12
2018-09-02T18:33:14.777Z,101776.73
2018-09-02T18:35:44.750Z,101771.17
2018-09-02T18:38:14.315Z,101774.87
2018-09-02T18:40:43.656Z,101777.05
2018-09-02T18:43:13.027Z,101775.54
2018-09-02T18:45:42.729Z,101774.25
2018-09-02T18:48:11.758Z,101771.55
2018-09-02T18:50:40.768Z,101775.17
2018-09-02T18:53:10.382Z,101775.45
2018-09-02T18:55:39.515Z,101774.65
2018-09-02T18:58:09.582Z,101771.75
2018-09-02T19:00:39.663Z,101772.97
2018-09-02T19:03:09.667Z,101765.50
2018-09-02T19:05:39.728Z,101769.17
2018-09-02T19:08:09.034Z,101765.63
2018-09-02T19:10:38.737Z,101775.04
2018-09-02T19:15:36.581Z,101760.23
2018-09-02T19:18:06.656Z,101762.34
2018-09-02T19:20:35.888Z,101766.09
2018-09-02T19:23:05.601Z,101768.23
2018-09-02T19:25:34.473Z,101762.70
2018-09-02T19:28:03.542Z,101765.86
2018-09-02T19:30:32.988Z,101762.03
2018-09-02T19:33:03.727Z,101755.68
2018-09-02T19:35:32.918Z,101756.94
2018-09-02T19:38:02.545Z,101750.69
2018-09-02T19:40:31.891Z,101749.58
2018-09-02T19:43:01.529Z,101744.98
2018-09-02T19:45:30.896Z,101738.32
2018-09-02T19:48:00.136Z,101733.73
2018-09-02T19:50:29.431Z,101726.11
2018-09-02T19:52:59.794Z,101722.72
2018-09-02T19:55:29.503Z,101732.43
2018-09-02T19:57:59.592Z,101720.96
2018-09-02T20:00:28.615Z,101722.27
2018-09-02T20:02:58.205Z,101723.52
2018-09-02T20:05:27.231Z,101722.07
2018-09-02T20:07:56.534Z,101721.77
2018-09-02T20:10:25.725Z,101717.33
2018-09-02T20:12:55.085Z,101719.11
2018-09-02T20:15:24.156Z,101712.27
2018-09-02T20:17:53.948Z,101714.58
2018-09-02T20:20:23.147Z,101709.06
2018-09-02T20:22:52.347Z,101706.22
2018-09-02T20:25:21.567Z,101700.40
2018-09-02T20:27:50.612Z,101698.30
2018-09-02T20:30:20.273Z,101701.48
2018-09-02T20:32:50.198Z,101693.34
2018-09-02T20:35:20.686Z,101694.02
2018-09-02T20:37:49.915Z,101702.38
2018-09-02T20:40:19.815Z,101692.14
2018-09-02T20:42:49.603Z,101701.27
2018-09-02T20:45:19.539Z,101700.00
2018-09-02T20:47:48.502Z,101696.83
2018-09-02T20:50:17.399Z,101702.93
2018-09-02T20:52:46.338Z,101700.53
2018-09-02T20:55:15.774Z,101705.77
2018-09-02T20:57:45.704Z,101702.56
2018-09-02T21:00:16.156Z,101703.61
2018-09-02T21:02:45.315Z,101701.36
2018-09-02T21:05:15.136Z,101695.93
2018-09-02T21:07:44.503Z,101698.19
2018-09-02T21:10:13.753Z,101694.73
2018-09-02T21:12:43.931Z,101690.36
2018-09-02T21:15:13.858Z,101690.87
2018-09-02T21:17:43.393Z,101688.54
2018-09-02T21:20:14.643Z,101691.16
2018-09-02T21:22:44.192Z,101695.01
2018-09-02T21:25:13.542Z,101696.21
2018-09-02T21:27:43.981Z,101691.41
2018-09-02T21:30:14.173Z,101685.45
2018-09-02T21:32:43.856Z,101691.87
2018-09-02T21:35:14.331Z,101692.30
2018-09-02T21:37:48.239Z,101685.83
2018-09-02T21:43:00.373Z,101689.73
2018-09-02T21:45:29.569Z,101686.41
2018-09-02T21:47:59.683Z,101683.60
2018-09-02T21:50:29.792Z,101682.25
2018-09-02T21:53:01.590Z,101678.39
2018-09-02T21:55:32.457Z,101676.77
2018-09-02T21:58:04.092Z,101675.41
2018-09-02T22:00:35.225Z,101667.70
2018-09-02T22:03:04.622Z,101665.83
2018-09-02T22:05:34.539Z,101661.23
2018-09-02T22:08:06.629Z,101655.94
2018-09-02T22:10:35.966Z,101657.23
2018-09-02T22:13:05.359Z,101654.42
2018-09-02T22:15:36.290Z,101650.35
2018-09-02T22:18:06.916Z,101645.98
2018-09-02T22:20:39.499Z,101648.84
2018-09-02T22:23:10.910Z,101652.91
2018-09-02T22:25:44.621Z,101647.02
2018-09-02T22:28:13.797Z,101640.77
2018-09-02T22:30:44.903Z,101639.30
2018-09-02T22:33:16.539Z,101629.28
2018-09-02T22:35:45.939Z,101628.45
2018-09-02T22:38:15.529Z,101627.46
2018-09-02T22:40:45.271Z,101625.12
2018-09-02T22:43:14.385Z,101625.12
2018-09-02T22:45:44.177Z,101630.76
2018-09-02T22:48:13.435Z,101625.06
2018-09-02T22:50:42.442Z,101629.28
2018-09-02T22:53:11.442Z,101630.76
2018-09-02T22:55:41.020Z,101625.21
2018-09-02T22:58:10.349Z,101626.36
2018-09-02T23:00:39.684Z,101622.80
2018-09-02T23:03:08.970Z,101617.84
2018-09-02T23:05:40.790Z,101626.29
2018-09-02T23:08:10.316Z,101625.83
2018-09-02T23:10:39.906Z,101622.59
2018-09-02T23:13:09.023Z,101625.52
2018-09-02T23:15:38.585Z,101616.83
2018-09-02T23:18:08.298Z,101609.27
2018-09-02T23:20:39.590Z,101613.19
2018-09-02T23:23:08.735Z,101603.48
2018-09-02T23:25:37.978Z,101599.78
2018-09-02T23:28:09.966Z,101605.30
2018-09-02T23:30:38.935Z,101600.61
2018-09-02T23:33:08.589Z,101599.47
2018-09-02T23:35:38.121Z,101598.27
2018-09-02T23:38:07.597Z,101598.49
2018-09-02T23:40:36.589Z,101594.95
2018-09-02T23:43:06.350Z,101600.38
2018-09-02T23:45:35.389Z,101595.25
2018-09-02T23:48:04.613Z,101595.25
2018-09-02T23:50:34.040Z,101594.58
2018-09-02T23:53:03.880Z,101591.80
2018-09-02T23:55:33.116Z,101585.86
2018-09-02T23:58:02.090Z,101585.77
